sensor_id;sensor_type;location;lat;lon;timestamp;P1;durP1;ratioP1;P2;durP2;ratioP2
79697;SDS011;69168;42.708;23.286;2023-05-07T00:00:08;17.40;;;6.57;;
79697;SDS011;69168;42.708;23.286;2023-05-07T00:02:34;11.05;;;6.28;;
79697;SDS011;69168;42.708;23.286;2023-05-07T00:05:01;8.77;;;5.10;;
79697;SDS011;69168;42.708;23.286;2023-05-07T00:07:27;8.25;;;5.45;;
79697;SDS011;69168;42.708;23.286;2023-05-07T00:09:53;8.25;;;4.57;;
79697;SDS011;69168;42.708;23.286;2023-05-07T00:12:18;8.27;;;5.40;;
79697;SDS011;69168;42.708;23.286;2023-05-07T00:14:44;8.10;;;5.63;;
79697;SDS011;69168;42.708;23.286;2023-05-07T00:17:10;8.63;;;4.88;;
79697;SDS011;69168;42.708;23.286;2023-05-07T00:19:36;9.00;;;5.63;;
79697;SDS011;69168;42.708;23.286;2023-05-07T00:22:01;7.05;;;4.95;;
79697;SDS011;69168;42.708;23.286;2023-05-07T00:24:27;9.57;;;6.32;;
79697;SDS011;69168;42.708;23.286;2023-05-07T00:26:52;7.82;;;5.82;;
79697;SDS011;69168;42.708;23.286;2023-05-07T00:29:18;7.68;;;5.60;;
79697;SDS011;69168;42.708;23.286;2023-05-07T00:31:43;13.02;;;6.45;;
79697;SDS011;69168;42.708;23.286;2023-05-07T00:34:09;9.57;;;5.88;;
79697;SDS011;69168;42.708;23.286;2023-05-07T00:36:34;10.48;;;6.72;;
79697;SDS011;69168;42.708;23.286;2023-05-07T00:39:01;7.90;;;5.47;;
79697;SDS011;69168;42.708;23.286;2023-05-07T00:41:28;10.32;;;6.03;;
79697;SDS011;69168;42.708;23.286;2023-05-07T00:43:55;6.63;;;5.32;;
79697;SDS011;69168;42.708;23.286;2023-05-07T00:46:21;7.90;;;5.65;;
79697;SDS011;69168;42.708;23.286;2023-05-07T00:48:47;10.25;;;5.47;;
79697;SDS011;69168;42.708;23.286;2023-05-07T00:51:14;9.73;;;5.55;;
79697;SDS011;69168;42.708;23.286;2023-05-07T00:53:40;8.63;;;5.13;;
79697;SDS011;69168;42.708;23.286;2023-05-07T00:56:06;9.00;;;5.05;;
79697;SDS011;69168;42.708;23.286;2023-05-07T00:58:32;7.93;;;5.80;;
79697;SDS011;69168;42.708;23.286;2023-05-07T01:00:59;8.75;;;6.07;;
79697;SDS011;69168;42.708;23.286;2023-05-07T01:03:24;10.93;;;6.40;;
79697;SDS011;69168;42.708;23.286;2023-05-07T01:05:50;11.93;;;6.13;;
79697;SDS011;69168;42.708;23.286;2023-05-07T01:08:18;9.00;;;5.95;;
79697;SDS011;69168;42.708;23.286;2023-05-07T01:10:43;10.15;;;6.32;;
79697;SDS011;69168;42.708;23.286;2023-05-07T01:13:10;10.18;;;5.82;;
79697;SDS011;69168;42.708;23.286;2023-05-07T01:15:37;11.63;;;7.30;;
79697;SDS011;69168;42.708;23.286;2023-05-07T01:18:03;8.80;;;5.80;;
79697;SDS011;69168;42.708;23.286;2023-05-07T01:20:28;8.85;;;5.72;;
79697;SDS011;69168;42.708;23.286;2023-05-07T01:22:54;10.05;;;6.13;;
79697;SDS011;69168;42.708;23.286;2023-05-07T01:25:21;9.32;;;5.80;;
79697;SDS011;69168;42.708;23.286;2023-05-07T01:27:47;11.05;;;6.20;;
79697;SDS011;69168;42.708;23.286;2023-05-07T01:30:12;7.22;;;4.78;;
79697;SDS011;69168;42.708;23.286;2023-05-07T01:32:53;9.27;;;6.43;;
79697;SDS011;69168;42.708;23.286;2023-05-07T01:35:28;10.38;;;6.43;;
79697;SDS011;69168;42.708;23.286;2023-05-07T01:37:57;10.95;;;6.35;;
79697;SDS011;69168;42.708;23.286;2023-05-07T01:40:24;10.30;;;5.90;;
79697;SDS011;69168;42.708;23.286;2023-05-07T01:42:50;10.60;;;5.85;;
79697;SDS011;69168;42.708;23.286;2023-05-07T01:45:16;10.40;;;5.20;;
79697;SDS011;69168;42.708;23.286;2023-05-07T01:47:41;9.80;;;6.45;;
79697;SDS011;69168;42.708;23.286;2023-05-07T01:50:08;9.73;;;6.07;;
79697;SDS011;69168;42.708;23.286;2023-05-07T01:52:35;9.40;;;5.55;;
79697;SDS011;69168;42.708;23.286;2023-05-07T01:55:02;9.05;;;5.63;;
79697;SDS011;69168;42.708;23.286;2023-05-07T01:57:28;10.40;;;6.40;;
79697;SDS011;69168;42.708;23.286;2023-05-07T01:59:54;9.55;;;6.43;;
79697;SDS011;69168;42.708;23.286;2023-05-07T02:02:19;9.40;;;6.20;;
79697;SDS011;69168;42.708;23.286;2023-05-07T02:04:45;10.75;;;5.78;;
79697;SDS011;69168;42.708;23.286;2023-05-07T02:07:10;12.25;;;6.40;;
79697;SDS011;69168;42.708;23.286;2023-05-07T02:09:36;9.25;;;6.13;;
79697;SDS011;69168;42.708;23.286;2023-05-07T02:12:01;11.80;;;7.32;;
79697;SDS011;69168;42.708;23.286;2023-05-07T02:14:27;9.65;;;7.00;;
79697;SDS011;69168;42.708;23.286;2023-05-07T02:16:52;9.43;;;6.80;;
79697;SDS011;69168;42.708;23.286;2023-05-07T02:19:17;10.35;;;6.47;;
79697;SDS011;69168;42.708;23.286;2023-05-07T02:21:46;10.50;;;6.68;;
79697;SDS011;69168;42.708;23.286;2023-05-07T02:24:11;12.68;;;6.55;;
79697;SDS011;69168;42.708;23.286;2023-05-07T02:26:37;16.30;;;6.68;;
79697;SDS011;69168;42.708;23.286;2023-05-07T02:29:02;10.77;;;7.65;;
79697;SDS011;69168;42.708;23.286;2023-05-07T02:31:28;13.23;;;6.55;;
79697;SDS011;69168;42.708;23.286;2023-05-07T02:33:53;10.38;;;6.88;;
79697;SDS011;69168;42.708;23.286;2023-05-07T02:36:18;14.93;;;8.20;;
79697;SDS011;69168;42.708;23.286;2023-05-07T02:38:44;10.57;;;6.47;;
79697;SDS011;69168;42.708;23.286;2023-05-07T02:41:09;11.50;;;7.50;;
79697;SDS011;69168;42.708;23.286;2023-05-07T02:43:36;9.88;;;6.75;;
79697;SDS011;69168;42.708;23.286;2023-05-07T02:48:30;10.55;;;6.50;;
79697;SDS011;69168;42.708;23.286;2023-05-07T02:50:56;8.50;;;6.32;;
79697;SDS011;69168;42.708;23.286;2023-05-07T02:53:21;8.40;;;6.72;;
79697;SDS011;69168;42.708;23.286;2023-05-07T02:55:47;9.35;;;6.53;;
79697;SDS011;69168;42.708;23.286;2023-05-07T02:58:12;10.15;;;6.60;;
79697;SDS011;69168;42.708;23.286;2023-05-07T03:00:38;9.95;;;7.07;;
79697;SDS011;69168;42.708;23.286;2023-05-07T03:03:03;11.52;;;6.68;;
79697;SDS011;69168;42.708;23.286;2023-05-07T03:05:29;10.30;;;6.57;;
79697;SDS011;69168;42.708;23.286;2023-05-07T03:07:54;9.45;;;6.18;;
79697;SDS011;69168;42.708;23.286;2023-05-07T03:10:19;10.98;;;6.30;;
79697;SDS011;69168;42.708;23.286;2023-05-07T03:12:45;11.53;;;6.40;;
79697;SDS011;69168;42.708;23.286;2023-05-07T03:15:10;11.20;;;6.30;;
79697;SDS011;69168;42.708;23.286;2023-05-07T03:17:38;16.05;;;6.78;;
79697;SDS011;69168;42.708;23.286;2023-05-07T03:20:04;11.10;;;7.40;;
79697;SDS011;69168;42.708;23.286;2023-05-07T03:22:30;12.75;;;6.70;;
79697;SDS011;69168;42.708;23.286;2023-05-07T03:24:56;10.95;;;6.50;;
79697;SDS011;69168;42.708;23.286;2023-05-07T03:27:21;11.07;;;6.63;;
79697;SDS011;69168;42.708;23.286;2023-05-07T03:29:47;10.77;;;6.53;;
79697;SDS011;69168;42.708;23.286;2023-05-07T03:32:12;7.95;;;5.85;;
79697;SDS011;69168;42.708;23.286;2023-05-07T03:34:39;10.00;;;6.10;;
79697;SDS011;69168;42.708;23.286;2023-05-07T03:37:04;8.98;;;6.03;;
79697;SDS011;69168;42.708;23.286;2023-05-07T03:39:30;11.40;;;7.30;;
79697;SDS011;69168;42.708;23.286;2023-05-07T03:41:57;10.38;;;6.15;;
79697;SDS011;69168;42.708;23.286;2023-05-07T03:44:23;11.50;;;5.82;;
79697;SDS011;69168;42.708;23.286;2023-05-07T03:46:48;10.25;;;6.38;;
79697;SDS011;69168;42.708;23.286;2023-05-07T03:49:14;9.00;;;5.78;;
79697;SDS011;69168;42.708;23.286;2023-05-07T03:51:39;11.23;;;6.57;;
79697;SDS011;69168;42.708;23.286;2023-05-07T03:54:05;8.27;;;5.63;;
79697;SDS011;69168;42.708;23.286;2023-05-07T03:56:30;10.38;;;6.85;;
79697;SDS011;69168;42.708;23.286;2023-05-07T03:58:56;7.80;;;6.13;;
79697;SDS011;69168;42.708;23.286;2023-05-07T04:01:21;9.32;;;6.57;;
79697;SDS011;69168;42.708;23.286;2023-05-07T04:03:49;9.90;;;6.30;;
79697;SDS011;69168;42.708;23.286;2023-05-07T04:06:16;9.13;;;6.05;;
79697;SDS011;69168;42.708;23.286;2023-05-07T04:08:44;9.55;;;6.47;;
79697;SDS011;69168;42.708;23.286;2023-05-07T04:11:09;9.23;;;6.13;;
79697;SDS011;69168;42.708;23.286;2023-05-07T04:13:35;13.90;;;6.07;;
79697;SDS011;69168;42.708;23.286;2023-05-07T04:16:01;9.88;;;6.53;;
79697;SDS011;69168;42.708;23.286;2023-05-07T04:18:28;11.95;;;7.00;;
79697;SDS011;69168;42.708;23.286;2023-05-07T04:20:53;10.88;;;7.13;;
79697;SDS011;69168;42.708;23.286;2023-05-07T04:23:19;9.55;;;6.10;;
79697;SDS011;69168;42.708;23.286;2023-05-07T04:25:44;9.25;;;7.50;;
79697;SDS011;69168;42.708;23.286;2023-05-07T04:28:10;10.45;;;6.13;;
79697;SDS011;69168;42.708;23.286;2023-05-07T04:30:36;11.57;;;6.50;;
79697;SDS011;69168;42.708;23.286;2023-05-07T04:33:02;11.93;;;7.03;;
79697;SDS011;69168;42.708;23.286;2023-05-07T04:35:27;13.13;;;7.38;;
79697;SDS011;69168;42.708;23.286;2023-05-07T04:37:53;8.77;;;6.60;;
79697;SDS011;69168;42.708;23.286;2023-05-07T04:40:18;13.48;;;6.65;;
79697;SDS011;69168;42.708;23.286;2023-05-07T04:42:44;12.90;;;7.10;;
79697;SDS011;69168;42.708;23.286;2023-05-07T04:45:09;11.10;;;7.72;;
79697;SDS011;69168;42.708;23.286;2023-05-07T04:47:35;9.98;;;6.90;;
79697;SDS011;69168;42.708;23.286;2023-05-07T04:50:01;12.10;;;7.57;;
79697;SDS011;69168;42.708;23.286;2023-05-07T04:52:26;11.07;;;7.60;;
79697;SDS011;69168;42.708;23.286;2023-05-07T04:54:52;8.60;;;6.82;;
79697;SDS011;69168;42.708;23.286;2023-05-07T04:57:17;11.13;;;8.13;;
79697;SDS011;69168;42.708;23.286;2023-05-07T04:59:43;10.20;;;7.03;;
79697;SDS011;69168;42.708;23.286;2023-05-07T05:02:12;13.32;;;7.53;;
79697;SDS011;69168;42.708;23.286;2023-05-07T05:04:37;10.60;;;7.43;;
79697;SDS011;69168;42.708;23.286;2023-05-07T05:07:03;11.60;;;6.65;;
79697;SDS011;69168;42.708;23.286;2023-05-07T05:09:29;13.07;;;8.90;;
79697;SDS011;69168;42.708;23.286;2023-05-07T05:11:55;10.65;;;7.85;;
79697;SDS011;69168;42.708;23.286;2023-05-07T05:14:20;14.65;;;7.85;;
79697;SDS011;69168;42.708;23.286;2023-05-07T05:16:46;16.25;;;9.57;;
79697;SDS011;69168;42.708;23.286;2023-05-07T05:19:11;10.82;;;7.18;;
79697;SDS011;69168;42.708;23.286;2023-05-07T05:21:37;11.57;;;7.63;;
79697;SDS011;69168;42.708;23.286;2023-05-07T05:24:02;12.70;;;7.72;;
79697;SDS011;69168;42.708;23.286;2023-05-07T05:26:28;13.35;;;7.32;;
79697;SDS011;69168;42.708;23.286;2023-05-07T05:28:53;12.82;;;7.90;;
79697;SDS011;69168;42.708;23.286;2023-05-07T05:31:19;12.68;;;8.30;;
79697;SDS011;69168;42.708;23.286;2023-05-07T05:33:44;12.02;;;7.40;;
79697;SDS011;69168;42.708;23.286;2023-05-07T05:36:10;11.05;;;8.07;;
79697;SDS011;69168;42.708;23.286;2023-05-07T05:38:35;13.20;;;8.30;;
79697;SDS011;69168;42.708;23.286;2023-05-07T05:41:01;13.82;;;9.52;;
79697;SDS011;69168;42.708;23.286;2023-05-07T05:43:27;12.73;;;8.15;;
79697;SDS011;69168;42.708;23.286;2023-05-07T05:45:52;17.17;;;9.48;;
79697;SDS011;69168;42.708;23.286;2023-05-07T05:48:17;18.17;;;9.52;;
79697;SDS011;69168;42.708;23.286;2023-05-07T05:50:43;16.92;;;9.52;;
79697;SDS011;69168;42.708;23.286;2023-05-07T05:53:08;19.92;;;11.38;;
79697;SDS011;69168;42.708;23.286;2023-05-07T05:55:34;15.82;;;9.65;;
79697;SDS011;69168;42.708;23.286;2023-05-07T05:58:02;13.98;;;8.50;;
79697;SDS011;69168;42.708;23.286;2023-05-07T06:00:28;19.52;;;9.02;;
79697;SDS011;69168;42.708;23.286;2023-05-07T06:02:54;17.35;;;9.38;;
79697;SDS011;69168;42.708;23.286;2023-05-07T06:05:20;15.35;;;9.40;;
79697;SDS011;69168;42.708;23.286;2023-05-07T06:07:45;15.07;;;8.65;;
79697;SDS011;69168;42.708;23.286;2023-05-07T06:10:11;12.10;;;8.82;;
79697;SDS011;69168;42.708;23.286;2023-05-07T06:12:36;16.15;;;9.30;;
79697;SDS011;69168;42.708;23.286;2023-05-07T06:15:02;11.98;;;8.45;;
79697;SDS011;69168;42.708;23.286;2023-05-07T06:17:27;13.73;;;9.07;;
79697;SDS011;69168;42.708;23.286;2023-05-07T06:19:53;17.77;;;8.90;;
79697;SDS011;69168;42.708;23.286;2023-05-07T06:22:18;13.27;;;9.13;;
79697;SDS011;69168;42.708;23.286;2023-05-07T06:24:44;13.07;;;9.57;;
79697;SDS011;69168;42.708;23.286;2023-05-07T06:27:09;12.40;;;8.30;;
79697;SDS011;69168;42.708;23.286;2023-05-07T06:29:35;15.68;;;9.10;;
79697;SDS011;69168;42.708;23.286;2023-05-07T06:32:10;12.90;;;8.65;;
79697;SDS011;69168;42.708;23.286;2023-05-07T06:34:37;14.45;;;9.32;;
79697;SDS011;69168;42.708;23.286;2023-05-07T06:37:03;15.27;;;9.13;;
79697;SDS011;69168;42.708;23.286;2023-05-07T06:39:28;15.40;;;9.40;;
79697;SDS011;69168;42.708;23.286;2023-05-07T06:41:54;11.60;;;7.70;;
79697;SDS011;69168;42.708;23.286;2023-05-07T06:44:19;12.55;;;8.13;;
79697;SDS011;69168;42.708;23.286;2023-05-07T06:46:45;12.13;;;8.95;;
79697;SDS011;69168;42.708;23.286;2023-05-07T06:49:11;11.43;;;7.15;;
79697;SDS011;69168;42.708;23.286;2023-05-07T06:51:37;12.25;;;7.15;;
79697;SDS011;69168;42.708;23.286;2023-05-07T06:54:03;10.18;;;6.95;;
79697;SDS011;69168;42.708;23.286;2023-05-07T06:56:29;10.00;;;7.90;;
79697;SDS011;69168;42.708;23.286;2023-05-07T06:58:55;10.75;;;7.97;;
79697;SDS011;69168;42.708;23.286;2023-05-07T07:01:21;11.00;;;7.82;;
79697;SDS011;69168;42.708;23.286;2023-05-07T07:03:46;12.63;;;8.20;;
79697;SDS011;69168;42.708;23.286;2023-05-07T07:06:12;13.25;;;9.30;;
79697;SDS011;69168;42.708;23.286;2023-05-07T07:08:37;12.30;;;9.00;;
79697;SDS011;69168;42.708;23.286;2023-05-07T07:11:04;15.43;;;8.93;;
79697;SDS011;69168;42.708;23.286;2023-05-07T07:13:30;15.93;;;9.18;;
79697;SDS011;69168;42.708;23.286;2023-05-07T07:15:55;13.30;;;8.40;;
79697;SDS011;69168;42.708;23.286;2023-05-07T07:18:21;13.93;;;9.70;;
79697;SDS011;69168;42.708;23.286;2023-05-07T07:20:46;15.10;;;9.02;;
79697;SDS011;69168;42.708;23.286;2023-05-07T07:23:11;13.48;;;9.32;;
79697;SDS011;69168;42.708;23.286;2023-05-07T07:25:37;13.00;;;8.95;;
79697;SDS011;69168;42.708;23.286;2023-05-07T07:28:02;12.70;;;9.27;;
79697;SDS011;69168;42.708;23.286;2023-05-07T07:30:28;14.90;;;10.23;;
79697;SDS011;69168;42.708;23.286;2023-05-07T07:32:53;14.60;;;8.98;;
79697;SDS011;69168;42.708;23.286;2023-05-07T07:35:20;14.07;;;8.55;;
79697;SDS011;69168;42.708;23.286;2023-05-07T07:37:45;13.77;;;9.07;;
79697;SDS011;69168;42.708;23.286;2023-05-07T07:40:12;13.70;;;9.13;;
79697;SDS011;69168;42.708;23.286;2023-05-07T07:42:37;13.20;;;8.77;;
79697;SDS011;69168;42.708;23.286;2023-05-07T07:45:03;12.20;;;8.20;;
79697;SDS011;69168;42.708;23.286;2023-05-07T07:47:29;17.13;;;8.88;;
79697;SDS011;69168;42.708;23.286;2023-05-07T07:49:54;14.52;;;7.85;;
79697;SDS011;69168;42.708;23.286;2023-05-07T07:52:20;13.27;;;7.47;;
79697;SDS011;69168;42.708;23.286;2023-05-07T07:54:46;8.80;;;6.72;;
79697;SDS011;69168;42.708;23.286;2023-05-07T07:57:11;15.05;;;9.57;;
79697;SDS011;69168;42.708;23.286;2023-05-07T07:59:36;12.05;;;8.43;;
79697;SDS011;69168;42.708;23.286;2023-05-07T08:02:02;13.60;;;8.95;;
79697;SDS011;69168;42.708;23.286;2023-05-07T08:04:27;14.32;;;9.38;;
79697;SDS011;69168;42.708;23.286;2023-05-07T08:06:53;9.90;;;7.43;;
79697;SDS011;69168;42.708;23.286;2023-05-07T08:09:19;15.07;;;8.43;;
79697;SDS011;69168;42.708;23.286;2023-05-07T08:11:45;14.25;;;7.35;;
79697;SDS011;69168;42.708;23.286;2023-05-07T08:14:11;15.02;;;7.53;;
79697;SDS011;69168;42.708;23.286;2023-05-07T08:16:36;11.88;;;7.38;;
79697;SDS011;69168;42.708;23.286;2023-05-07T08:19:02;9.88;;;7.60;;
79697;SDS011;69168;42.708;23.286;2023-05-07T08:21:27;10.45;;;6.97;;
79697;SDS011;69168;42.708;23.286;2023-05-07T08:23:53;12.23;;;7.38;;
79697;SDS011;69168;42.708;23.286;2023-05-07T08:26:18;11.35;;;7.15;;
79697;SDS011;69168;42.708;23.286;2023-05-07T08:28:43;12.52;;;7.40;;
79697;SDS011;69168;42.708;23.286;2023-05-07T08:31:09;10.07;;;6.68;;
79697;SDS011;69168;42.708;23.286;2023-05-07T08:33:34;10.52;;;6.60;;
79697;SDS011;69168;42.708;23.286;2023-05-07T08:36:00;12.57;;;6.20;;
79697;SDS011;69168;42.708;23.286;2023-05-07T08:38:25;9.57;;;5.95;;
79697;SDS011;69168;42.708;23.286;2023-05-07T08:40:51;14.50;;;6.38;;
79697;SDS011;69168;42.708;23.286;2023-05-07T08:43:17;10.05;;;6.53;;
79697;SDS011;69168;42.708;23.286;2023-05-07T08:45:44;9.25;;;6.22;;
79697;SDS011;69168;42.708;23.286;2023-05-07T08:48:14;9.15;;;6.13;;
79697;SDS011;69168;42.708;23.286;2023-05-07T08:50:41;6.68;;;5.00;;
79697;SDS011;69168;42.708;23.286;2023-05-07T08:53:06;6.50;;;4.35;;
79697;SDS011;69168;42.708;23.286;2023-05-07T08:55:32;6.65;;;5.53;;
79697;SDS011;69168;42.708;23.286;2023-05-07T08:57:58;6.50;;;5.32;;
79697;SDS011;69168;42.708;23.286;2023-05-07T09:00:24;8.77;;;5.47;;
79697;SDS011;69168;42.708;23.286;2023-05-07T09:02:49;11.88;;;5.60;;
79697;SDS011;69168;42.708;23.286;2023-05-07T09:05:15;10.18;;;5.45;;
79697;SDS011;69168;42.708;23.286;2023-05-07T09:07:40;8.85;;;5.68;;
79697;SDS011;69168;42.708;23.286;2023-05-07T09:10:06;7.75;;;6.20;;
79697;SDS011;69168;42.708;23.286;2023-05-07T09:12:32;7.82;;;5.35;;
79697;SDS011;69168;42.708;23.286;2023-05-07T09:15:00;8.85;;;5.65;;
79697;SDS011;69168;42.708;23.286;2023-05-07T09:17:25;11.13;;;4.85;;
79697;SDS011;69168;42.708;23.286;2023-05-07T09:19:51;8.07;;;4.90;;
79697;SDS011;69168;42.708;23.286;2023-05-07T09:22:18;6.13;;;5.05;;
79697;SDS011;69168;42.708;23.286;2023-05-07T09:24:50;8.40;;;4.90;;
79697;SDS011;69168;42.708;23.286;2023-05-07T09:27:17;7.13;;;4.72;;
79697;SDS011;69168;42.708;23.286;2023-05-07T09:29:43;8.82;;;5.75;;
79697;SDS011;69168;42.708;23.286;2023-05-07T09:32:09;10.57;;;5.13;;
79697;SDS011;69168;42.708;23.286;2023-05-07T09:34:35;5.35;;;4.22;;
79697;SDS011;69168;42.708;23.286;2023-05-07T09:37:04;7.00;;;4.10;;
79697;SDS011;69168;42.708;23.286;2023-05-07T09:39:43;5.97;;;3.88;;
79697;SDS011;69168;42.708;23.286;2023-05-07T09:42:10;4.78;;;4.25;;
79697;SDS011;69168;42.708;23.286;2023-05-07T09:44:45;5.03;;;4.05;;
79697;SDS011;69168;42.708;23.286;2023-05-07T09:47:12;6.05;;;3.85;;
79697;SDS011;69168;42.708;23.286;2023-05-07T09:49:43;5.15;;;3.63;;
79697;SDS011;69168;42.708;23.286;2023-05-07T09:52:13;6.47;;;4.43;;
79697;SDS011;69168;42.708;23.286;2023-05-07T09:54:39;5.40;;;4.53;;
79697;SDS011;69168;42.708;23.286;2023-05-07T09:57:08;7.00;;;4.25;;
79697;SDS011;69168;42.708;23.286;2023-05-07T09:59:35;5.65;;;3.97;;
79697;SDS011;69168;42.708;23.286;2023-05-07T10:02:02;6.63;;;4.13;;
79697;SDS011;69168;42.708;23.286;2023-05-07T10:04:28;6.97;;;4.28;;
79697;SDS011;69168;42.708;23.286;2023-05-07T10:06:55;7.15;;;4.13;;
79697;SDS011;69168;42.708;23.286;2023-05-07T10:09:21;8.60;;;4.05;;
79697;SDS011;69168;42.708;23.286;2023-05-07T10:14:17;4.80;;;2.70;;
79697;SDS011;69168;42.708;23.286;2023-05-07T10:16:44;3.55;;;3.13;;
79697;SDS011;69168;42.708;23.286;2023-05-07T10:19:12;3.67;;;2.88;;
79697;SDS011;69168;42.708;23.286;2023-05-07T10:21:38;6.00;;;3.88;;
79697;SDS011;69168;42.708;23.286;2023-05-07T10:24:26;4.22;;;2.80;;
79697;SDS011;69168;42.708;23.286;2023-05-07T10:26:54;3.72;;;2.92;;
79697;SDS011;69168;42.708;23.286;2023-05-07T10:34:28;3.30;;;2.97;;
79697;SDS011;69168;42.708;23.286;2023-05-07T10:36:58;5.20;;;3.20;;
79697;SDS011;69168;42.708;23.286;2023-05-07T10:39:24;5.03;;;3.10;;
79697;SDS011;69168;42.708;23.286;2023-05-07T10:41:49;4.35;;;2.80;;
79697;SDS011;69168;42.708;23.286;2023-05-07T10:44:25;4.55;;;2.92;;
79697;SDS011;69168;42.708;23.286;2023-05-07T10:47:03;4.50;;;3.50;;
79697;SDS011;69168;42.708;23.286;2023-05-07T10:49:29;4.68;;;4.00;;
79697;SDS011;69168;42.708;23.286;2023-05-07T10:52:11;4.32;;;3.00;;
79697;SDS011;69168;42.708;23.286;2023-05-07T10:54:43;3.85;;;3.03;;
79697;SDS011;69168;42.708;23.286;2023-05-07T11:00:02;7.93;;;3.22;;
79697;SDS011;69168;42.708;23.286;2023-05-07T11:03:04;4.95;;;3.17;;
79697;SDS011;69168;42.708;23.286;2023-05-07T11:05:29;5.72;;;3.55;;
79697;SDS011;69168;42.708;23.286;2023-05-07T11:07:57;4.47;;;3.70;;
79697;SDS011;69168;42.708;23.286;2023-05-07T11:10:26;3.45;;;3.15;;
79697;SDS011;69168;42.708;23.286;2023-05-07T11:13:41;3.78;;;2.72;;
79697;SDS011;69168;42.708;23.286;2023-05-07T11:16:19;3.38;;;2.60;;
79697;SDS011;69168;42.708;23.286;2023-05-07T11:18:55;3.78;;;2.50;;
79697;SDS011;69168;42.708;23.286;2023-05-07T11:21:37;4.30;;;2.40;;
79697;SDS011;69168;42.708;23.286;2023-05-07T11:24:04;3.15;;;2.25;;
79697;SDS011;69168;42.708;23.286;2023-05-07T11:26:31;6.00;;;2.65;;
79697;SDS011;69168;42.708;23.286;2023-05-07T11:29:17;3.65;;;3.35;;
79697;SDS011;69168;42.708;23.286;2023-05-07T11:31:44;4.05;;;2.80;;
79697;SDS011;69168;42.708;23.286;2023-05-07T11:34:13;2.90;;;2.40;;
79697;SDS011;69168;42.708;23.286;2023-05-07T11:36:44;2.63;;;2.38;;
79697;SDS011;69168;42.708;23.286;2023-05-07T11:39:23;6.28;;;3.85;;
79697;SDS011;69168;42.708;23.286;2023-05-07T11:41:53;3.28;;;2.67;;
79697;SDS011;69168;42.708;23.286;2023-05-07T11:44:19;5.40;;;2.72;;
79697;SDS011;69168;42.708;23.286;2023-05-07T11:46:44;2.85;;;2.45;;
79697;SDS011;69168;42.708;23.286;2023-05-07T11:49:10;3.97;;;2.63;;
79697;SDS011;69168;42.708;23.286;2023-05-07T11:51:36;2.95;;;2.58;;
79697;SDS011;69168;42.708;23.286;2023-05-07T11:54:03;3.92;;;2.95;;
79697;SDS011;69168;42.708;23.286;2023-05-07T11:56:33;2.20;;;2.00;;
79697;SDS011;69168;42.708;23.286;2023-05-07T11:59:00;5.78;;;2.28;;
79697;SDS011;69168;42.708;23.286;2023-05-07T12:01:25;3.33;;;2.00;;
79697;SDS011;69168;42.708;23.286;2023-05-07T12:03:51;2.97;;;1.98;;
79697;SDS011;69168;42.708;23.286;2023-05-07T12:06:16;7.30;;;2.67;;
79697;SDS011;69168;42.708;23.286;2023-05-07T12:08:43;2.83;;;2.50;;
79697;SDS011;69168;42.708;23.286;2023-05-07T12:11:13;4.38;;;2.25;;
79697;SDS011;69168;42.708;23.286;2023-05-07T12:13:47;3.38;;;2.50;;
79697;SDS011;69168;42.708;23.286;2023-05-07T12:16:12;3.88;;;2.40;;
79697;SDS011;69168;42.708;23.286;2023-05-07T12:18:39;3.20;;;2.72;;
79697;SDS011;69168;42.708;23.286;2023-05-07T12:21:05;3.20;;;2.10;;
79697;SDS011;69168;42.708;23.286;2023-05-07T12:23:31;2.08;;;1.95;;
79697;SDS011;69168;42.708;23.286;2023-05-07T12:25:58;5.82;;;2.42;;
79697;SDS011;69168;42.708;23.286;2023-05-07T12:28:24;5.57;;;3.72;;
79697;SDS011;69168;42.708;23.286;2023-05-07T12:30:50;3.40;;;2.25;;
79697;SDS011;69168;42.708;23.286;2023-05-07T12:33:23;4.38;;;2.72;;
79697;SDS011;69168;42.708;23.286;2023-05-07T12:35:50;4.97;;;2.70;;
79697;SDS011;69168;42.708;23.286;2023-05-07T12:38:17;6.07;;;2.67;;
79697;SDS011;69168;42.708;23.286;2023-05-07T12:40:50;4.15;;;2.90;;
79697;SDS011;69168;42.708;23.286;2023-05-07T12:43:25;3.42;;;2.30;;
79697;SDS011;69168;42.708;23.286;2023-05-07T12:45:56;2.97;;;2.53;;
79697;SDS011;69168;42.708;23.286;2023-05-07T12:48:24;4.22;;;2.50;;
79697;SDS011;69168;42.708;23.286;2023-05-07T12:50:52;2.78;;;2.40;;
79697;SDS011;69168;42.708;23.286;2023-05-07T12:53:20;4.28;;;2.72;;
79697;SDS011;69168;42.708;23.286;2023-05-07T12:55:47;4.53;;;2.03;;
79697;SDS011;69168;42.708;23.286;2023-05-07T12:58:16;2.72;;;2.50;;
79697;SDS011;69168;42.708;23.286;2023-05-07T13:00:48;5.53;;;2.22;;
79697;SDS011;69168;42.708;23.286;2023-05-07T13:03:21;4.13;;;2.67;;
79697;SDS011;69168;42.708;23.286;2023-05-07T13:05:47;3.30;;;2.50;;
79697;SDS011;69168;42.708;23.286;2023-05-07T13:10:48;3.05;;;2.75;;
79697;SDS011;69168;42.708;23.286;2023-05-07T13:15:38;3.00;;;2.43;;
79697;SDS011;69168;42.708;23.286;2023-05-07T13:20:29;3.40;;;2.43;;
79697;SDS011;69168;42.708;23.286;2023-05-07T13:22:55;3.10;;;2.80;;
79697;SDS011;69168;42.708;23.286;2023-05-07T13:27:45;3.33;;;2.73;;
79697;SDS011;69168;42.708;23.286;2023-05-07T13:32:36;3.65;;;2.95;;
79697;SDS011;69168;42.708;23.286;2023-05-07T13:35:02;3.33;;;2.60;;
79697;SDS011;69168;42.708;23.286;2023-05-07T13:37:27;2.53;;;2.28;;
79697;SDS011;69168;42.708;23.286;2023-05-07T13:39:53;5.68;;;3.42;;
79697;SDS011;69168;42.708;23.286;2023-05-07T13:44:44;4.23;;;3.27;;
79697;SDS011;69168;42.708;23.286;2023-05-07T13:47:09;3.25;;;2.95;;
79697;SDS011;69168;42.708;23.286;2023-05-07T13:49:35;3.97;;;2.50;;
79697;SDS011;69168;42.708;23.286;2023-05-07T13:52:01;3.53;;;2.78;;
79697;SDS011;69168;42.708;23.286;2023-05-07T13:56:51;4.10;;;2.80;;
79697;SDS011;69168;42.708;23.286;2023-05-07T14:01:42;4.17;;;2.90;;
79697;SDS011;69168;42.708;23.286;2023-05-07T14:06:33;3.97;;;2.70;;
79697;SDS011;69168;42.708;23.286;2023-05-07T14:11:25;3.33;;;2.55;;
79697;SDS011;69168;42.708;23.286;2023-05-07T14:16:16;2.17;;;2.05;;
79697;SDS011;69168;42.708;23.286;2023-05-07T14:18:41;2.72;;;2.50;;
79697;SDS011;69168;42.708;23.286;2023-05-07T14:21:07;3.33;;;2.60;;
79697;SDS011;69168;42.708;23.286;2023-05-07T14:23:34;5.35;;;3.05;;
79697;SDS011;69168;42.708;23.286;2023-05-07T14:26:00;2.75;;;2.20;;
79697;SDS011;69168;42.708;23.286;2023-05-07T14:28:25;2.50;;;2.30;;
79697;SDS011;69168;42.708;23.286;2023-05-07T14:30:50;2.92;;;2.33;;
79697;SDS011;69168;42.708;23.286;2023-05-07T14:33:16;5.55;;;3.00;;
79697;SDS011;69168;42.708;23.286;2023-05-07T14:35:42;2.83;;;2.38;;
79697;SDS011;69168;42.708;23.286;2023-05-07T14:38:12;3.85;;;2.60;;
79697;SDS011;69168;42.708;23.286;2023-05-07T14:40:38;4.72;;;2.30;;
79697;SDS011;69168;42.708;23.286;2023-05-07T14:43:03;3.15;;;2.33;;
79697;SDS011;69168;42.708;23.286;2023-05-07T14:45:29;3.80;;;2.30;;
79697;SDS011;69168;42.708;23.286;2023-05-07T14:47:54;5.53;;;2.58;;
79697;SDS011;69168;42.708;23.286;2023-05-07T14:52:45;2.40;;;2.20;;
79697;SDS011;69168;42.708;23.286;2023-05-07T14:57:36;3.30;;;2.92;;
79697;SDS011;69168;42.708;23.286;2023-05-07T15:02:29;3.22;;;2.80;;
79697;SDS011;69168;42.708;23.286;2023-05-07T15:07:20;4.47;;;2.53;;
79697;SDS011;69168;42.708;23.286;2023-05-07T15:12:12;4.43;;;2.70;;
79697;SDS011;69168;42.708;23.286;2023-05-07T15:14:38;3.72;;;2.50;;
79697;SDS011;69168;42.708;23.286;2023-05-07T15:17:22;4.95;;;2.38;;